sensor_id;sensor_type;location;lat;lon;timestamp;temperature;humidity
16479;DHT22;8350;52.316;10.530;2023-09-07T00:00:16;15.70;1.00
16479;DHT22;8350;52.316;10.530;2023-09-07T00:02:43;15.80;1.00
16479;DHT22;8350;52.316;10.530;2023-09-07T00:05:10;15.90;1.00
16479;DHT22;8350;52.316;10.530;2023-09-07T00:07:37;16.10;1.00
16479;DHT22;8350;52.316;10.530;2023-09-07T00:10:05;16.10;1.00
16479;DHT22;8350;52.316;10.530;2023-09-07T00:12:33;16.30;1.00
16479;DHT22;8350;52.316;10.530;2023-09-07T00:15:01;16.40;1.00
16479;DHT22;8350;52.316;10.530;2023-09-07T00:17:31;16.30;1.00
16479;DHT22;8350;52.316;10.530;2023-09-07T00:19:58;16.30;1.00
16479;DHT22;8350;52.316;10.530;2023-09-07T00:22:25;16.10;1.00
16479;DHT22;8350;52.316;10.530;2023-09-07T00:24:52;16.10;1.00
16479;DHT22;8350;52.316;10.530;2023-09-07T00:27:19;16.10;1.00
16479;DHT22;8350;52.316;10.530;2023-09-07T00:29:46;16.10;1.00
16479;DHT22;8350;52.316;10.530;2023-09-07T00:32:14;16.10;1.00
16479;DHT22;8350;52.316;10.530;2023-09-07T00:34:41;16.10;1.00
16479;DHT22;8350;52.316;10.530;2023-09-07T00:37:08;16.20;1.00
16479;DHT22;8350;52.316;10.530;2023-09-07T00:39:35;16.20;1.00
16479;DHT22;8350;52.316;10.530;2023-09-07T00:42:03;16.20;1.00
16479;DHT22;8350;52.316;10.530;2023-09-07T00:44:30;16.20;1.00
16479;DHT22;8350;52.316;10.530;2023-09-07T00:46:57;16.20;1.00
16479;DHT22;8350;52.316;10.530;2023-09-07T00:49:25;16.20;1.00
16479;DHT22;8350;52.316;10.530;2023-09-07T00:51:52;16.10;1.00
16479;DHT22;8350;52.316;10.530;2023-09-07T00:54:20;16.10;1.00
16479;DHT22;8350;52.316;10.530;2023-09-07T00:56:47;16.10;1.00
16479;DHT22;8350;52.316;10.530;2023-09-07T00:59:14;16.00;1.00
16479;DHT22;8350;52.316;10.530;2023-09-07T01:01:41;16.00;1.00
16479;DHT22;8350;52.316;10.530;2023-09-07T01:04:08;15.90;1.00
16479;DHT22;8350;52.316;10.530;2023-09-07T01:06:54;15.80;1.00
16479;DHT22;8350;52.316;10.530;2023-09-07T01:09:24;15.70;1.00
16479;DHT22;8350;52.316;10.530;2023-09-07T01:11:53;15.50;1.00
16479;DHT22;8350;52.316;10.530;2023-09-07T01:14:20;15.40;1.00
16479;DHT22;8350;52.316;10.530;2023-09-07T01:16:48;15.40;1.00
16479;DHT22;8350;52.316;10.530;2023-09-07T01:19:15;15.40;1.00
16479;DHT22;8350;52.316;10.530;2023-09-07T01:21:44;15.50;1.00
16479;DHT22;8350;52.316;10.530;2023-09-07T01:24:13;15.60;1.00
16479;DHT22;8350;52.316;10.530;2023-09-07T01:26:40;15.70;1.00
16479;DHT22;8350;52.316;10.530;2023-09-07T01:29:08;15.70;1.00
16479;DHT22;8350;52.316;10.530;2023-09-07T01:31:38;15.70;1.00
16479;DHT22;8350;52.316;10.530;2023-09-07T01:34:06;15.80;1.00
16479;DHT22;8350;52.316;10.530;2023-09-07T01:36:33;15.80;1.00
16479;DHT22;8350;52.316;10.530;2023-09-07T01:39:02;15.70;1.00
16479;DHT22;8350;52.316;10.530;2023-09-07T01:41:32;15.60;1.00
16479;DHT22;8350;52.316;10.530;2023-09-07T01:44:00;15.50;1.00
16479;DHT22;8350;52.316;10.530;2023-09-07T01:46:27;15.40;1.00
16479;DHT22;8350;52.316;10.530;2023-09-07T01:48:54;15.30;1.00
16479;DHT22;8350;52.316;10.530;2023-09-07T01:51:21;15.30;1.00
16479;DHT22;8350;52.316;10.530;2023-09-07T01:53:48;15.30;1.00
16479;DHT22;8350;52.316;10.530;2023-09-07T01:56:17;15.30;1.00
16479;DHT22;8350;52.316;10.530;2023-09-07T01:58:44;15.50;1.00
16479;DHT22;8350;52.316;10.530;2023-09-07T02:01:21;15.60;1.00
16479;DHT22;8350;52.316;10.530;2023-09-07T02:03:48;15.70;1.00
16479;DHT22;8350;52.316;10.530;2023-09-07T02:06:15;15.80;1.00
16479;DHT22;8350;52.316;10.530;2023-09-07T02:08:42;15.80;1.00
16479;DHT22;8350;52.316;10.530;2023-09-07T02:11:09;15.90;1.00
16479;DHT22;8350;52.316;10.530;2023-09-07T02:13:38;15.90;1.00
16479;DHT22;8350;52.316;10.530;2023-09-07T02:16:07;15.90;1.00
16479;DHT22;8350;52.316;10.530;2023-09-07T02:18:35;15.80;1.00
16479;DHT22;8350;52.316;10.530;2023-09-07T02:21:03;15.80;1.00
16479;DHT22;8350;52.316;10.530;2023-09-07T02:23:31;15.80;1.00
16479;DHT22;8350;52.316;10.530;2023-09-07T02:25:58;15.80;1.00
16479;DHT22;8350;52.316;10.530;2023-09-07T02:28:25;15.80;1.00
16479;DHT22;8350;52.316;10.530;2023-09-07T02:30:54;15.80;1.00
16479;DHT22;8350;52.316;10.530;2023-09-07T02:33:24;15.70;1.00
16479;DHT22;8350;52.316;10.530;2023-09-07T02:35:51;15.80;1.00
16479;DHT22;8350;52.316;10.530;2023-09-07T02:38:18;15.80;1.00
16479;DHT22;8350;52.316;10.530;2023-09-07T02:40:51;15.80;1.00
16479;DHT22;8350;52.316;10.530;2023-09-07T02:43:18;15.80;1.00
16479;DHT22;8350;52.316;10.530;2023-09-07T02:45:45;15.80;1.00
16479;DHT22;8350;52.316;10.530;2023-09-07T02:48:13;15.70;1.00
16479;DHT22;8350;52.316;10.530;2023-09-07T02:50:41;15.80;1.00
16479;DHT22;8350;52.316;10.530;2023-09-07T02:53:08;15.70;1.00
16479;DHT22;8350;52.316;10.530;2023-09-07T02:55:35;15.80;1.00
16479;DHT22;8350;52.316;10.530;2023-09-07T02:58:03;15.80;1.00
16479;DHT22;8350;52.316;10.530;2023-09-07T03:00:30;15.70;1.00
16479;DHT22;8350;52.316;10.530;2023-09-07T03:02:57;15.50;1.00
16479;DHT22;8350;52.316;10.530;2023-09-07T03:05:28;15.40;1.00
16479;DHT22;8350;52.316;10.530;2023-09-07T03:07:55;15.30;1.00
16479;DHT22;8350;52.316;10.530;2023-09-07T03:10:22;15.30;1.00
16479;DHT22;8350;52.316;10.530;2023-09-07T03:12:48;15.20;1.00
16479;DHT22;8350;52.316;10.530;2023-09-07T03:15:16;15.20;1.00
16479;DHT22;8350;52.316;10.530;2023-09-07T03:17:43;15.10;1.00
16479;DHT22;8350;52.316;10.530;2023-09-07T03:20:17;15.10;1.00
16479;DHT22;8350;52.316;10.530;2023-09-07T03:22:46;15.10;1.00
16479;DHT22;8350;52.316;10.530;2023-09-07T03:25:14;15.00;1.00
16479;DHT22;8350;52.316;10.530;2023-09-07T03:27:41;15.00;1.00
16479;DHT22;8350;52.316;10.530;2023-09-07T03:30:08;14.90;1.00
16479;DHT22;8350;52.316;10.530;2023-09-07T03:32:35;15.00;1.00
16479;DHT22;8350;52.316;10.530;2023-09-07T03:35:04;15.00;1.00
16479;DHT22;8350;52.316;10.530;2023-09-07T03:37:32;15.00;1.00
16479;DHT22;8350;52.316;10.530;2023-09-07T03:40:01;14.90;1.00
16479;DHT22;8350;52.316;10.530;2023-09-07T03:42:30;14.90;1.00
16479;DHT22;8350;52.316;10.530;2023-09-07T03:44:57;14.90;1.00
16479;DHT22;8350;52.316;10.530;2023-09-07T03:47:24;14.80;1.00
16479;DHT22;8350;52.316;10.530;2023-09-07T03:49:55;14.80;1.00
16479;DHT22;8350;52.316;10.530;2023-09-07T03:52:22;14.70;1.00
16479;DHT22;8350;52.316;10.530;2023-09-07T03:54:53;14.60;1.00
16479;DHT22;8350;52.316;10.530;2023-09-07T03:57:22;14.60;1.00
16479;DHT22;8350;52.316;10.530;2023-09-07T03:59:49;14.60;1.00
16479;DHT22;8350;52.316;10.530;2023-09-07T04:02:16;14.60;1.00
16479;DHT22;8350;52.316;10.530;2023-09-07T04:04:48;14.60;1.00
16479;DHT22;8350;52.316;10.530;2023-09-07T04:07:24;14.60;1.00
16479;DHT22;8350;52.316;10.530;2023-09-07T04:09:51;14.70;1.00
16479;DHT22;8350;52.316;10.530;2023-09-07T04:12:18;14.70;1.00
16479;DHT22;8350;52.316;10.530;2023-09-07T04:14:47;14.70;1.00
16479;DHT22;8350;52.316;10.530;2023-09-07T04:17:14;14.70;1.00
16479;DHT22;8350;52.316;10.530;2023-09-07T04:19:41;14.70;1.00
16479;DHT22;8350;52.316;10.530;2023-09-07T04:22:09;14.60;1.00
16479;DHT22;8350;52.316;10.530;2023-09-07T04:24:40;14.60;1.00
16479;DHT22;8350;52.316;10.530;2023-09-07T04:27:07;14.60;1.00
16479;DHT22;8350;52.316;10.530;2023-09-07T04:29:34;14.40;1.00
16479;DHT22;8350;52.316;10.530;2023-09-07T04:32:02;14.40;1.00
16479;DHT22;8350;52.316;10.530;2023-09-07T04:34:29;14.40;1.00
16479;DHT22;8350;52.316;10.530;2023-09-07T04:36:57;14.30;1.00
16479;DHT22;8350;52.316;10.530;2023-09-07T04:39:24;14.30;1.00
16479;DHT22;8350;52.316;10.530;2023-09-07T04:41:51;14.30;1.00
16479;DHT22;8350;52.316;10.530;2023-09-07T04:44:18;14.20;1.00
16479;DHT22;8350;52.316;10.530;2023-09-07T04:46:46;14.40;1.00
16479;DHT22;8350;52.316;10.530;2023-09-07T04:49:14;14.40;1.00
16479;DHT22;8350;52.316;10.530;2023-09-07T04:51:41;14.40;1.00
16479;DHT22;8350;52.316;10.530;2023-09-07T04:54:09;14.40;1.00
16479;DHT22;8350;52.316;10.530;2023-09-07T04:56:36;14.50;1.00
16479;DHT22;8350;52.316;10.530;2023-09-07T04:59:03;14.60;1.00
16479;DHT22;8350;52.316;10.530;2023-09-07T05:01:30;14.70;1.00
16479;DHT22;8350;52.316;10.530;2023-09-07T05:04:00;14.90;1.00
16479;DHT22;8350;52.316;10.530;2023-09-07T05:06:30;15.40;1.00
16479;DHT22;8350;52.316;10.530;2023-09-07T05:09:02;16.10;1.00
16479;DHT22;8350;52.316;10.530;2023-09-07T05:11:29;17.00;99.90
16479;DHT22;8350;52.316;10.530;2023-09-07T05:13:56;17.70;1.00
16479;DHT22;8350;52.316;10.530;2023-09-07T05:16:23;18.40;99.90
16479;DHT22;8350;52.316;10.530;2023-09-07T05:18:50;19.30;1.00
16479;DHT22;8350;52.316;10.530;2023-09-07T05:21:17;20.10;1.00
16479;DHT22;8350;52.316;10.530;2023-09-07T05:23:46;20.80;1.00
16479;DHT22;8350;52.316;10.530;2023-09-07T05:26:23;21.40;99.90
16479;DHT22;8350;52.316;10.530;2023-09-07T05:28:50;21.30;1.00
16479;DHT22;8350;52.316;10.530;2023-09-07T05:31:20;21.00;99.90
16479;DHT22;8350;52.316;10.530;2023-09-07T05:33:59;21.00;1.00
16479;DHT22;8350;52.316;10.530;2023-09-07T05:36:26;21.90;1.00
16479;DHT22;8350;52.316;10.530;2023-09-07T05:38:55;22.60;1.00
16479;DHT22;8350;52.316;10.530;2023-09-07T05:41:22;23.10;99.90
16479;DHT22;8350;52.316;10.530;2023-09-07T05:43:49;23.60;1.00
16479;DHT22;8350;52.316;10.530;2023-09-07T05:46:16;24.20;1.00
16479;DHT22;8350;52.316;10.530;2023-09-07T05:48:43;24.90;99.90
16479;DHT22;8350;52.316;10.530;2023-09-07T05:51:10;25.50;1.00
16479;DHT22;8350;52.316;10.530;2023-09-07T05:53:38;25.80;99.90
16479;DHT22;8350;52.316;10.530;2023-09-07T05:56:09;26.10;99.90
16479;DHT22;8350;52.316;10.530;2023-09-07T05:58:36;26.20;99.90
16479;DHT22;8350;52.316;10.530;2023-09-07T06:01:03;26.20;68.40
16479;DHT22;8350;52.316;10.530;2023-09-07T06:03:31;26.10;1.00
16479;DHT22;8350;52.316;10.530;2023-09-07T06:05:58;25.90;99.90
16479;DHT22;8350;52.316;10.530;2023-09-07T06:08:25;25.90;94.60
16479;DHT22;8350;52.316;10.530;2023-09-07T06:10:53;25.70;99.90
16479;DHT22;8350;52.316;10.530;2023-09-07T06:13:21;25.50;99.90
16479;DHT22;8350;52.316;10.530;2023-09-07T06:15:58;25.70;99.90
16479;DHT22;8350;52.316;10.530;2023-09-07T06:18:26;25.40;1.00
16479;DHT22;8350;52.316;10.530;2023-09-07T06:20:53;25.40;1.00
16479;DHT22;8350;52.316;10.530;2023-09-07T06:23:21;25.30;1.00
16479;DHT22;8350;52.316;10.530;2023-09-07T06:25:48;25.20;1.00
16479;DHT22;8350;52.316;10.530;2023-09-07T06:28:15;25.00;99.90
16479;DHT22;8350;52.316;10.530;2023-09-07T06:30:43;24.80;1.00
16479;DHT22;8350;52.316;10.530;2023-09-07T06:33:10;24.60;1.00
16479;DHT22;8350;52.316;10.530;2023-09-07T06:35:38;24.50;99.90
16479;DHT22;8350;52.316;10.530;2023-09-07T06:38:05;24.10;1.00
16479;DHT22;8350;52.316;10.530;2023-09-07T06:40:32;23.90;99.90
16479;DHT22;8350;52.316;10.530;2023-09-07T06:42:59;23.60;1.00
16479;DHT22;8350;52.316;10.530;2023-09-07T06:45:26;23.20;99.90
16479;DHT22;8350;52.316;10.530;2023-09-07T06:47:54;22.90;1.00
16479;DHT22;8350;52.316;10.530;2023-09-07T06:50:21;22.40;99.90
16479;DHT22;8350;52.316;10.530;2023-09-07T06:52:48;22.10;20.40
16479;DHT22;8350;52.316;10.530;2023-09-07T06:55:16;22.10;1.00
16479;DHT22;8350;52.316;10.530;2023-09-07T06:57:43;22.10;99.90
16479;DHT22;8350;52.316;10.530;2023-09-07T07:00:11;22.20;26.10
16479;DHT22;8350;52.316;10.530;2023-09-07T07:02:38;22.20;1.00
16479;DHT22;8350;52.316;10.530;2023-09-07T07:05:07;22.20;1.00
16479;DHT22;8350;52.316;10.530;2023-09-07T07:07:34;22.10;1.00
16479;DHT22;8350;52.316;10.530;2023-09-07T07:10:01;22.20;1.00
16479;DHT22;8350;52.316;10.530;2023-09-07T07:12:29;22.10;99.90
16479;DHT22;8350;52.316;10.530;2023-09-07T07:14:56;22.10;99.90
16479;DHT22;8350;52.316;10.530;2023-09-07T07:17:23;22.00;99.90
16479;DHT22;8350;52.316;10.530;2023-09-07T07:19:50;22.10;1.00
16479;DHT22;8350;52.316;10.530;2023-09-07T07:22:18;22.20;99.90
16479;DHT22;8350;52.316;10.530;2023-09-07T07:24:46;22.30;99.90
16479;DHT22;8350;52.316;10.530;2023-09-07T07:27:13;22.30;1.00
16479;DHT22;8350;52.316;10.530;2023-09-07T07:29:40;22.40;1.00
16479;DHT22;8350;52.316;10.530;2023-09-07T07:32:07;22.40;1.00
16479;DHT22;8350;52.316;10.530;2023-09-07T07:34:34;22.50;1.00
16479;DHT22;8350;52.316;10.530;2023-09-07T07:37:02;22.70;1.00
16479;DHT22;8350;52.316;10.530;2023-09-07T07:39:30;22.80;99.90
16479;DHT22;8350;52.316;10.530;2023-09-07T07:41:57;23.00;68.30
16479;DHT22;8350;52.316;10.530;2023-09-07T07:44:24;23.20;1.00
16479;DHT22;8350;52.316;10.530;2023-09-07T07:46:51;23.40;99.90
16479;DHT22;8350;52.316;10.530;2023-09-07T07:49:18;23.40;1.00
16479;DHT22;8350;52.316;10.530;2023-09-07T07:51:45;23.40;1.00
16479;DHT22;8350;52.316;10.530;2023-09-07T07:54:12;23.50;1.00
16479;DHT22;8350;52.316;10.530;2023-09-07T07:56:40;23.60;1.00
16479;DHT22;8350;52.316;10.530;2023-09-07T07:59:09;23.70;1.00
16479;DHT22;8350;52.316;10.530;2023-09-07T08:01:36;24.00;99.90
16479;DHT22;8350;52.316;10.530;2023-09-07T08:04:03;24.10;67.90
16479;DHT22;8350;52.316;10.530;2023-09-07T08:06:30;24.10;99.90
16479;DHT22;8350;52.316;10.530;2023-09-07T08:08:57;24.10;1.00
16479;DHT22;8350;52.316;10.530;2023-09-07T08:11:24;24.00;1.00
16479;DHT22;8350;52.316;10.530;2023-09-07T08:13:54;24.00;1.00
16479;DHT22;8350;52.316;10.530;2023-09-07T08:16:21;24.10;1.00
16479;DHT22;8350;52.316;10.530;2023-09-07T08:18:48;24.10;99.90
16479;DHT22;8350;52.316;10.530;2023-09-07T08:21:15;24.20;1.00
16479;DHT22;8350;52.316;10.530;2023-09-07T08:23:43;24.30;99.90
16479;DHT22;8350;52.316;10.530;2023-09-07T08:26:10;24.40;1.00
16479;DHT22;8350;52.316;10.530;2023-09-07T08:28:38;24.60;1.00
16479;DHT22;8350;52.316;10.530;2023-09-07T08:31:06;24.80;99.90
16479;DHT22;8350;52.316;10.530;2023-09-07T08:33:33;25.00;99.90
16479;DHT22;8350;52.316;10.530;2023-09-07T08:36:07;25.00;99.90
16479;DHT22;8350;52.316;10.530;2023-09-07T08:38:35;25.00;99.90
16479;DHT22;8350;52.316;10.530;2023-09-07T08:41:02;25.00;99.90
16479;DHT22;8350;52.316;10.530;2023-09-07T08:43:33;25.30;1.00
16479;DHT22;8350;52.316;10.530;2023-09-07T08:46:09;25.50;1.00
16479;DHT22;8350;52.316;10.530;2023-09-07T08:48:37;25.50;1.00
16479;DHT22;8350;52.316;10.530;2023-09-07T08:51:05;25.70;1.00
16479;DHT22;8350;52.316;10.530;2023-09-07T08:53:37;25.70;1.00
16479;DHT22;8350;52.316;10.530;2023-09-07T08:56:04;25.80;99.90
16479;DHT22;8350;52.316;10.530;2023-09-07T08:58:35;25.90;99.90
16479;DHT22;8350;52.316;10.530;2023-09-07T09:01:04;26.00;99.90
16479;DHT22;8350;52.316;10.530;2023-09-07T09:03:35;26.00;92.90
16479;DHT22;8350;52.316;10.530;2023-09-07T09:06:05;26.10;99.90
16479;DHT22;8350;52.316;10.530;2023-09-07T09:08:43;26.20;99.90
16479;DHT22;8350;52.316;10.530;2023-09-07T09:11:13;26.30;99.90
16479;DHT22;8350;52.316;10.530;2023-09-07T09:13:40;26.30;99.90
16479;DHT22;8350;52.316;10.530;2023-09-07T09:16:08;26.30;99.90
16479;DHT22;8350;52.316;10.530;2023-09-07T09:18:37;26.40;62.50
16479;DHT22;8350;52.316;10.530;2023-09-07T09:21:05;26.60;1.00
16479;DHT22;8350;52.316;10.530;2023-09-07T09:23:33;26.70;29.10
16479;DHT22;8350;52.316;10.530;2023-09-07T09:26:00;26.80;1.00
16479;DHT22;8350;52.316;10.530;2023-09-07T09:28:30;26.90;1.00
16479;DHT22;8350;52.316;10.530;2023-09-07T09:30:58;26.80;24.10
16479;DHT22;8350;52.316;10.530;2023-09-07T09:33:26;26.90;34.80
16479;DHT22;8350;52.316;10.530;2023-09-07T09:35:55;27.00;1.00
16479;DHT22;8350;52.316;10.530;2023-09-07T09:38:25;27.20;1.00
16479;DHT22;8350;52.316;10.530;2023-09-07T09:40:52;27.30;1.00
16479;DHT22;8350;52.316;10.530;2023-09-07T09:43:20;27.50;1.00
16479;DHT22;8350;52.316;10.530;2023-09-07T09:45:47;27.40;1.00
16479;DHT22;8350;52.316;10.530;2023-09-07T09:48:16;27.40;1.00
16479;DHT22;8350;52.316;10.530;2023-09-07T09:50:46;27.30;99.90
16479;DHT22;8350;52.316;10.530;2023-09-07T09:53:16;27.20;1.00
16479;DHT22;8350;52.316;10.530;2023-09-07T09:55:44;27.30;1.00
16479;DHT22;8350;52.316;10.530;2023-09-07T09:58:14;27.50;99.90
16479;DHT22;8350;52.316;10.530;2023-09-07T10:00:43;27.50;1.00
16479;DHT22;8350;52.316;10.530;2023-09-07T10:03:14;27.60;99.90
16479;DHT22;8350;52.316;10.530;2023-09-07T10:05:45;27.60;99.90
16479;DHT22;8350;52.316;10.530;2023-09-07T10:08:16;27.60;99.90
16479;DHT22;8350;52.316;10.530;2023-09-07T10:10:50;27.50;99.90
16479;DHT22;8350;52.316;10.530;2023-09-07T10:13:29;27.70;99.90
16479;DHT22;8350;52.316;10.530;2023-09-07T10:16:00;27.70;99.90
16479;DHT22;8350;52.316;10.530;2023-09-07T10:18:33;27.90;99.90
16479;DHT22;8350;52.316;10.530;2023-09-07T10:21:03;28.10;99.90
16479;DHT22;8350;52.316;10.530;2023-09-07T10:23:39;28.20;99.90
16479;DHT22;8350;52.316;10.530;2023-09-07T10:26:12;28.30;99.90
16479;DHT22;8350;52.316;10.530;2023-09-07T10:28:40;28.30;99.90
16479;DHT22;8350;52.316;10.530;2023-09-07T10:31:13;28.20;28.10
16479;DHT22;8350;52.316;10.530;2023-09-07T10:33:40;28.30;22.90
16479;DHT22;8350;52.316;10.530;2023-09-07T10:36:07;28.50;9.80
16479;DHT22;8350;52.316;10.530;2023-09-07T10:38:35;28.50;1.00
16479;DHT22;8350;52.316;10.530;2023-09-07T10:41:04;28.50;1.00
16479;DHT22;8350;52.316;10.530;2023-09-07T10:43:33;28.40;1.00
16479;DHT22;8350;52.316;10.530;2023-09-07T10:46:01;28.40;1.00
16479;DHT22;8350;52.316;10.530;2023-09-07T10:48:30;28.40;1.00
16479;DHT22;8350;52.316;10.530;2023-09-07T10:51:00;28.30;1.00
16479;DHT22;8350;52.316;10.530;2023-09-07T10:53:28;28.30;1.00
16479;DHT22;8350;52.316;10.530;2023-09-07T10:56:26;28.30;1.00
16479;DHT22;8350;52.316;10.530;2023-09-07T10:59:05;28.30;1.00
16479;DHT22;8350;52.316;10.530;2023-09-07T11:01:32;28.20;1.00
16479;DHT22;8350;52.316;10.530;2023-09-07T11:03:59;28.20;1.00
16479;DHT22;8350;52.316;10.530;2023-09-07T11:06:26;28.40;1.00
16479;DHT22;8350;52.316;10.530;2023-09-07T11:08:53;28.40;1.00
16479;DHT22;8350;52.316;10.530;2023-09-07T11:11:21;28.60;1.00
16479;DHT22;8350;52.316;10.530;2023-09-07T11:13:50;28.60;1.00
16479;DHT22;8350;52.316;10.530;2023-09-07T11:16:19;28.70;1.00
16479;DHT22;8350;52.316;10.530;2023-09-07T11:18:47;28.60;1.00
16479;DHT22;8350;52.316;10.530;2023-09-07T11:21:14;28.60;1.00
16479;DHT22;8350;52.316;10.530;2023-09-07T11:23:45;28.60;1.00
16479;DHT22;8350;52.316;10.530;2023-09-07T11:26:13;28.60;1.00
16479;DHT22;8350;52.316;10.530;2023-09-07T11:28:45;28.70;1.00
16479;DHT22;8350;52.316;10.530;2023-09-07T11:31:13;28.80;1.00
16479;DHT22;8350;52.316;10.530;2023-09-07T11:33:44;28.80;1.00
16479;DHT22;8350;52.316;10.530;2023-09-07T11:36:13;28.70;1.00
16479;DHT22;8350;52.316;10.530;2023-09-07T11:38:43;28.70;1.00
16479;DHT22;8350;52.316;10.530;2023-09-07T11:41:13;28.80;1.00
16479;DHT22;8350;52.316;10.530;2023-09-07T11:43:40;28.90;1.00
16479;DHT22;8350;52.316;10.530;2023-09-07T11:46:07;28.90;1.00
16479;DHT22;8350;52.316;10.530;2023-09-07T11:48:36;28.90;1.00
16479;DHT22;8350;52.316;10.530;2023-09-07T11:51:03;29.00;1.00
16479;DHT22;8350;52.316;10.530;2023-09-07T11:53:30;29.00;1.00
16479;DHT22;8350;52.316;10.530;2023-09-07T11:55:57;28.90;1.00
16479;DHT22;8350;52.316;10.530;2023-09-07T11:58:24;28.80;1.00
16479;DHT22;8350;52.316;10.530;2023-09-07T12:00:52;28.70;1.00
16479;DHT22;8350;52.316;10.530;2023-09-07T12:03:20;28.80;1.00
16479;DHT22;8350;52.316;10.530;2023-09-07T12:05:51;29.00;1.00
16479;DHT22;8350;52.316;10.530;2023-09-07T12:08:18;29.10;1.00
16479;DHT22;8350;52.316;10.530;2023-09-07T12:10:45;29.40;1.00
16479;DHT22;8350;52.316;10.530;2023-09-07T12:13:12;29.70;1.00
16479;DHT22;8350;52.316;10.530;2023-09-07T12:15:39;29.70;1.00
16479;DHT22;8350;52.316;10.530;2023-09-07T12:18:14;29.80;1.00
16479;DHT22;8350;52.316;10.530;2023-09-07T12:20:41;29.80;1.00
16479;DHT22;8350;52.316;10.530;2023-09-07T12:23:12;29.80;1.00
16479;DHT22;8350;52.316;10.530;2023-09-07T12:25:39;29.90;1.00
16479;DHT22;8350;52.316;10.530;2023-09-07T12:28:06;29.90;1.00
16479;DHT22;8350;52.316;10.530;2023-09-07T12:30:41;29.70;1.00
16479;DHT22;8350;52.316;10.530;2023-09-07T12:33:10;29.70;1.00
16479;DHT22;8350;52.316;10.530;2023-09-07T12:35:38;29.80;1.00
16479;DHT22;8350;52.316;10.530;2023-09-07T12:38:05;29.90;1.00
16479;DHT22;8350;52.316;10.530;2023-09-07T12:40:38;30.10;99.90
16479;DHT22;8350;52.316;10.530;2023-09-07T12:43:05;29.90;99.90
16479;DHT22;8350;52.316;10.530;2023-09-07T12:45:32;29.90;99.90
16479;DHT22;8350;52.316;10.530;2023-09-07T12:48:00;29.80;99.90
16479;DHT22;8350;52.316;10.530;2023-09-07T12:50:28;29.50;99.90
16479;DHT22;8350;52.316;10.530;2023-09-07T12:52:56;29.60;99.90
16479;DHT22;8350;52.316;10.530;2023-09-07T12:55:24;29.60;99.90
16479;DHT22;8350;52.316;10.530;2023-09-07T12:57:53;29.60;99.90
16479;DHT22;8350;52.316;10.530;2023-09-07T13:00:22;29.70;99.90
16479;DHT22;8350;52.316;10.530;2023-09-07T13:02:54;29.70;99.90
16479;DHT22;8350;52.316;10.530;2023-09-07T13:05:28;29.70;99.90
16479;DHT22;8350;52.316;10.530;2023-09-07T13:07:55;29.80;99.90
16479;DHT22;8350;52.316;10.530;2023-09-07T13:10:23;29.90;99.90
16479;DHT22;8350;52.316;10.530;2023-09-07T13:12:50;30.10;99.90
16479;DHT22;8350;52.316;10.530;2023-09-07T13:15:21;30.20;99.90
16479;DHT22;8350;52.316;10.530;2023-09-07T13:17:49;30.10;99.90
16479;DHT22;8350;52.316;10.530;2023-09-07T13:20:16;30.20;99.90
16479;DHT22;8350;52.316;10.530;2023-09-07T13:22:45;30.00;99.90
16479;DHT22;8350;52.316;10.530;2023-09-07T13:25:13;30.00;99.90
16479;DHT22;8350;52.316;10.530;2023-09-07T13:27:42;30.00;99.90
16479;DHT22;8350;52.316;10.530;2023-09-07T13:30:09;30.10;99.90
16479;DHT22;8350;52.316;10.530;2023-09-07T13:32:43;30.10;99.90
16479;DHT22;8350;52.316;10.530;2023-09-07T13:35:16;30.20;99.90
16479;DHT22;8350;52.316;10.530;2023-09-07T13:37:52;30.20;99.90
16479;DHT22;8350;52.316;10.530;2023-09-07T13:40:19;30.30;99.90
16479;DHT22;8350;52.316;10.530;2023-09-07T13:42:51;30.30;99.90
16479;DHT22;8350;52.316;10.530;2023-09-07T13:45:19;30.10;99.90
16479;DHT22;8350;52.316;10.530;2023-09-07T13:47:48;30.10;99.90
16479;DHT22;8350;52.316;10.530;2023-09-07T13:50:16;30.20;99.90
16479;DHT22;8350;52.316;10.530;2023-09-07T13:52:43;30.20;97.50
16479;DHT22;8350;52.316;10.530;2023-09-07T13:55:10;30.10;98.00
16479;DHT22;8350;52.316;10.530;2023-09-07T13:57:37;30.00;99.90
16479;DHT22;8350;52.316;10.530;2023-09-07T14:00:05;29.90;96.90
16479;DHT22;8350;52.316;10.530;2023-09-07T14:02:32;30.00;99.90
16479;DHT22;8350;52.316;10.530;2023-09-07T14:05:00;30.00;99.90
16479;DHT22;8350;52.316;10.530;2023-09-07T14:07:28;29.90;99.90
16479;DHT22;8350;52.316;10.530;2023-09-07T14:09:55;30.00;99.90
16479;DHT22;8350;52.316;10.530;2023-09-07T14:12:22;30.20;99.90
16479;DHT22;8350;52.316;10.530;2023-09-07T14:14:49;30.10;52.40
16479;DHT22;8350;52.316;10.530;2023-09-07T14:17:35;30.00;66.70
16479;DHT22;8350;52.316;10.530;2023-09-07T14:20:04;30.10;99.90
16479;DHT22;8350;52.316;10.530;2023-09-07T14:22:31;30.10;74.60
16479;DHT22;8350;52.316;10.530;2023-09-07T14:24:58;30.10;80.30
16479;DHT22;8350;52.316;10.530;2023-09-07T14:27:25;30.10;90.00
16479;DHT22;8350;52.316;10.530;2023-09-07T14:29:52;30.10;81.90
16479;DHT22;8350;52.316;10.530;2023-09-07T14:32:20;30.10;91.50
16479;DHT22;8350;52.316;10.530;2023-09-07T14:34:47;30.10;32.90
16479;DHT22;8350;52.316;10.530;2023-09-07T14:37:15;30.20;35.00
16479;DHT22;8350;52.316;10.530;2023-09-07T14:39:42;30.20;55.60
16479;DHT22;8350;52.316;10.530;2023-09-07T14:42:13;30.20;1.00
16479;DHT22;8350;52.316;10.530;2023-09-07T14:44:42;30.10;1.20
16479;DHT22;8350;52.316;10.530;2023-09-07T14:47:09;30.00;1.00
16479;DHT22;8350;52.316;10.530;2023-09-07T14:49:37;30.00;1.00
16479;DHT22;8350;52.316;10.530;2023-09-07T14:52:04;30.00;1.00
16479;DHT22;8350;52.316;10.530;2023-09-07T14:54:36;30.00;1.00
16479;DHT22;8350;52.316;10.530;2023-09-07T14:57:06;30.00;1.00
16479;DHT22;8350;52.316;10.530;2023-09-07T14:59:33;30.00;1.00
16479;DHT22;8350;52.316;10.530;2023-09-07T15:02:02;30.00;19.50
16479;DHT22;8350;52.316;10.530;2023-09-07T15:04:29;30.00;1.50
16479;DHT22;8350;52.316;10.530;2023-09-07T15:06:56;29.90;12.70
16479;DHT22;8350;52.316;10.530;2023-09-07T15:09:23;29.90;20.70
16479;DHT22;8350;52.316;10.530;2023-09-07T15:11:51;29.90;1.00
16479;DHT22;8350;52.316;10.530;2023-09-07T15:14:18;29.80;1.00
16479;DHT22;8350;52.316;10.530;2023-09-07T15:16:46;29.70;1.00
16479;DHT22;8350;52.316;10.530;2023-09-07T15:19:13;29.70;1.00
16479;DHT22;8350;52.316;10.530;2023-09-07T15:21:40;29.70;1.00
16479;DHT22;8350;52.316;10.530;2023-09-07T15:24:10;29.70;1.00
16479;DHT22;8350;52.316;10.530;2023-09-07T15:26:41;29.60;3.00
16479;DHT22;8350;52.316;10.530;2023-09-07T15:29:11;29.60;5.60
16479;DHT22;8350;52.316;10.530;2023-09-07T15:31:38;29.50;20.60
16479;DHT22;8350;52.316;10.530;2023-09-07T15:34:05;29.40;33.90
16479;DHT22;8350;52.316;10.530;2023-09-07T15:36:32;29.30;29.10
16479;DHT22;8350;52.316;10.530;2023-09-07T15:38:59;29.30;1.00
16479;DHT22;8350;52.316;10.530;2023-09-07T15:41:26;29.20;17.60
16479;DHT22;8350;52.316;10.530;2023-09-07T15:43:54;29.10;25.50
16479;DHT22;8350;52.316;10.530;2023-09-07T15:46:23;29.10;37.40